Cave Ridge, Kentucky
Current Conditions -  °F | °C
As of 2:15 PM on Friday 31 Oct 2014 (Local Time) from KGLW Reporting Station
Moderate Rain Moderate Rain  
Wind Chill: 35°   Ceiling: 1200
Heat Index: 42°   Visibility: 4mi
Dew Point: 38°   Wind: 12mph
Humidity: 88%   Direction: 330°NNW
Pressure: 30"   Gusts: 23mph
Location:  36.9886°N, 85.5829°W
Report Text: KGLW 311915Z AUTO 33010G20KT 310V010 4SM RA OVC012 05/04 A3000 RMK AO2 T00540036
Loading
Personal Weather Stations






























Interactive Weather Map
Tropical Storm Tracking
New forecast layout! Learn more

10-Day Weather Forecast

Advertisements
Track Severe Weather on mobile